Share

Morris, MN (56267)

APRSWXNET Morris MN US (MC8223) Elev 1174 ft | 45.59 °N, 95.90 °W | Change Station

Current weather conditions updated 36 minutes ago

Scattered Clouds
Scattered Clouds
29.0 °F
Feels Like 29.0 °F
N
1.0
Wind Variable Wind from East
Sunrise 6:32 AM
Sunset 8:14 PM
Moon Waning Gibbous

Today is forecast to be Much Warmer than yesterday. Windy with a mix of sun and clouds.

Pressure 30.28 in
Visibility 10.0 miles
Clouds Scattered Clouds 11000 ft
Dew Point 24.0 °F
Humidity 81%
Rainfall -999.00 in
Snow Depth Not available.
UV 0 out of 16
Pollen 9.40 out of 12
Air Quality Not available.
Flu Activity Sporadic
METAR KMOX 181111Z AUTO 10006KT 10SM SCT110 M02/M03 A3028 RMK AO2

More Conditions Fewer Conditions

Pressure 30.28 in
Visibility 10.0 miles
Clouds Scattered Clouds 11000 ft
Dew Point 24.0 °F
Humidity 81%
Rainfall -999.00 in
Snow Depth Not available.
UV 0 out of 16
Pollen 9.40 out of 12
Air Quality Not available.
Flu Activity Sporadic
METAR KMOX 181111Z AUTO 10006KT 10SM SCT110 M02/M03 A3028 RMK AO2

More Conditions Fewer Conditions

10-Day Forecast

Almanac

Astronomy

Apr. 18, 2014 Rise Set
Actual Time 6:32 AM CDT 8:14 PM CDT
Civil Twilight 6:01 AM CDT 8:45 PM CDT
Nautical Twilight 5:23 AM CDT 9:23 PM CDT
Astronomical Twilight 4:42 AM CDT 10:05 PM CDT
Moon No Moon Rise 8:49 AM CDT
Length of Visible Light 14h 43m
Length of Day
13h 41m
Tomorrow will be 3m 2s longer.
Waning Gibbous, 88% of the Moon is Illuminated
Today
Waning Gibbous
Apr 22
Last Quarter
Apr 29
New
May 6
First Quarter
May 14
Full

Today's Extremes

State Highs State Lows

Community

  • SUNRISE THROUGH THE TREES.
    SUNRISE THROUGH THE TREES.
  • Dog Wood Blossoms
    Dog Wood Blossoms
  • Morning Light
    Morning Light
  • New Day
    New Day
  • Lake Michigan Sunrise
    Lake Michigan Sunrise

WunderPhotos

Upload Photos

1,702,313 photos uploaded!

Nearby

Snow Depth

Station Depth Elevation
No new snow has been reported.

Coastal Water Temperatures

Place Temperature
No Stations Reporting

Earthquake Activity

City Distance Mag. Time & Date
No recent earthquake activity has been reported nearby.
Minimum magnitude displayed is 2.5.

Nearby Weather Stations

There are no personal weather stations in this area.

What do you think?

We're not finished. Please let us know what you like, what you don't like, and what you are still missing.